createdAt,value
2023-04-28T00:00:31.841Z,8.40
2023-04-28T00:03:17.637Z,8.80
2023-04-28T00:05:47.018Z,8.10
2023-04-28T00:08:15.326Z,8.40
2023-04-28T00:10:43.311Z,8.80
2023-04-28T00:13:11.986Z,8.60
2023-04-28T00:15:39.953Z,8.60
2023-04-28T00:18:08.152Z,8.60
2023-04-28T00:20:36.197Z,8.50
2023-04-28T00:23:04.258Z,8.90
2023-04-28T00:25:32.258Z,8.80
2023-04-28T00:28:00.406Z,8.60
2023-04-28T00:30:30.484Z,8.90
2023-04-28T00:32:58.577Z,8.20
2023-04-28T00:35:26.773Z,8.60
2023-04-28T00:37:54.744Z,8.90
2023-04-28T00:40:23.603Z,8.60
2023-04-28T00:42:51.599Z,8.10
2023-04-28T00:45:19.775Z,7.90
2023-04-28T00:47:47.964Z,8.20
2023-04-28T00:50:16.732Z,8.60
2023-04-28T00:52:44.733Z,8.70
2023-04-28T00:55:16.282Z,8.00
2023-04-28T00:57:46.288Z,7.80
2023-04-28T01:00:15.406Z,7.00
2023-04-28T01:02:43.471Z,7.60
2023-04-28T01:05:12.522Z,7.00
2023-04-28T01:07:40.476Z,7.50
2023-04-28T01:10:09.930Z,7.40
2023-04-28T01:12:37.903Z,7.10
2023-04-28T01:15:07.954Z,6.60
2023-04-28T01:17:36.070Z,7.20
2023-04-28T01:20:05.031Z,7.60
2023-04-28T01:22:33.217Z,7.40
2023-04-28T01:25:01.294Z,7.30
2023-04-28T01:27:29.662Z,7.80
2023-04-28T01:29:58.652Z,8.50
2023-04-28T01:32:26.879Z,8.30
2023-04-28T01:34:54.926Z,8.20
2023-04-28T01:37:22.962Z,7.70
2023-04-28T01:39:51.048Z,7.60
2023-04-28T01:42:20.039Z,7.40
2023-04-28T01:44:48.073Z,7.10
2023-04-28T01:47:16.182Z,7.10
2023-04-28T01:49:44.276Z,7.30
2023-04-28T01:52:12.320Z,7.90
2023-04-28T01:54:40.444Z,7.10
2023-04-28T01:57:08.558Z,6.70
2023-04-28T01:59:36.917Z,7.20
2023-04-28T02:02:06.503Z,6.80
2023-04-28T02:04:34.747Z,6.70
2023-04-28T02:07:02.696Z,6.80
2023-04-28T02:09:31.063Z,6.40
2023-04-28T02:12:00.312Z,7.00
2023-04-28T02:14:34.530Z,6.60
2023-04-28T02:17:05.693Z,6.60
2023-04-28T02:19:34.626Z,6.10
2023-04-28T02:22:02.685Z,6.10
2023-04-28T02:24:30.783Z,6.30
2023-04-28T02:26:59.430Z,5.80
2023-04-28T02:29:30.209Z,6.30
2023-04-28T02:31:59.707Z,6.60
2023-04-28T02:34:27.909Z,6.40
2023-04-28T02:36:55.870Z,6.90
2023-04-28T02:39:27.006Z,6.80
2023-04-28T02:41:57.898Z,7.60
2023-04-28T02:44:26.471Z,7.10
2023-04-28T02:46:54.560Z,7.00
2023-04-28T02:49:22.618Z,6.30
2023-04-28T02:51:50.630Z,6.70
2023-04-28T02:54:27.600Z,6.70
2023-04-28T02:56:57.300Z,6.50
2023-04-28T02:59:25.652Z,6.70
2023-04-28T03:01:53.714Z,6.50
2023-04-28T03:04:22.184Z,6.50
2023-04-28T03:06:51.089Z,5.90
2023-04-28T03:09:19.042Z,5.80
2023-04-28T03:11:47.170Z,6.40
2023-04-28T03:14:15.453Z,6.30
2023-04-28T03:16:44.864Z,6.30
2023-04-28T03:19:12.913Z,6.10
2023-04-28T03:21:40.850Z,5.90
2023-04-28T03:24:08.838Z,6.20
2023-04-28T03:26:37.406Z,6.50
2023-04-28T03:29:05.462Z,6.40
2023-04-28T03:31:33.610Z,6.50
2023-04-28T03:34:03.546Z,6.10
2023-04-28T03:36:32.238Z,6.20
2023-04-28T03:39:06.346Z,7.20
2023-04-28T03:41:34.424Z,6.30
2023-04-28T03:44:31.796Z,5.80
2023-04-28T03:47:00.158Z,6.10
2023-04-28T03:49:28.400Z,5.50
2023-04-28T03:51:56.506Z,5.20
2023-04-28T03:54:24.876Z,5.70
2023-04-28T03:56:53.329Z,5.70
2023-04-28T03:59:21.434Z,5.60
2023-04-28T04:01:50.830Z,5.50
2023-04-28T04:04:19.557Z,5.60
2023-04-28T04:06:47.997Z,5.00
2023-04-28T04:09:16.340Z,5.20
2023-04-28T04:11:44.686Z,6.10
2023-04-28T04:14:12.599Z,6.50
2023-04-28T04:16:41.334Z,7.10
2023-04-28T04:19:09.438Z,18.00
2023-04-28T04:21:42.224Z,16.30
2023-04-28T04:24:10.223Z,25.90
2023-04-28T04:26:39.028Z,21.90
2023-04-28T04:29:20.604Z,20.00
2023-04-28T04:31:49.903Z,7.90
2023-04-28T04:34:18.577Z,7.50
2023-04-28T04:36:47.091Z,7.20
2023-04-28T04:39:15.761Z,7.60
2023-04-28T04:41:43.736Z,6.90
2023-04-28T04:44:28.690Z,6.70
2023-04-28T04:46:57.478Z,6.60
2023-04-28T04:49:25.467Z,5.20
2023-04-28T04:51:53.520Z,5.40
2023-04-28T04:54:21.625Z,5.50
2023-04-28T04:56:49.677Z,4.80
2023-04-28T04:59:22.142Z,4.80
2023-04-28T05:01:57.492Z,4.80
2023-04-28T05:04:25.775Z,4.60
2023-04-28T05:06:53.846Z,4.50
2023-04-28T05:09:23.218Z,4.50
2023-04-28T05:11:51.185Z,4.50
2023-04-28T05:14:19.230Z,4.40
2023-04-28T05:16:47.519Z,4.60
2023-04-28T05:19:24.092Z,4.40
2023-04-28T05:21:54.965Z,4.50
2023-04-28T05:24:26.380Z,4.50
2023-04-28T05:26:54.894Z,4.90
2023-04-28T05:29:22.923Z,4.80
2023-04-28T05:31:51.069Z,4.50
2023-04-28T05:34:21.428Z,4.60
2023-04-28T05:36:49.502Z,4.50
2023-04-28T05:39:18.466Z,4.60
2023-04-28T05:41:46.618Z,4.50
2023-04-28T05:44:14.941Z,4.60
2023-04-28T05:46:43.232Z,4.70
2023-04-28T05:49:11.895Z,5.00
2023-04-28T05:51:40.575Z,4.70
2023-04-28T05:54:08.631Z,5.00
2023-04-28T05:56:42.163Z,5.00
2023-04-28T05:59:10.437Z,5.50
2023-04-28T06:01:39.032Z,4.90
2023-04-28T06:04:07.760Z,4.60
2023-04-28T06:06:36.161Z,4.60
2023-04-28T06:09:04.861Z,4.70
2023-04-28T06:11:34.308Z,4.40
2023-04-28T06:14:02.200Z,4.60
2023-04-28T06:16:30.420Z,4.80
2023-04-28T06:18:58.684Z,4.80
2023-04-28T06:21:27.460Z,4.90
2023-04-28T06:23:55.369Z,4.60
2023-04-28T06:26:24.158Z,4.40
2023-04-28T06:28:52.350Z,4.30
2023-04-28T06:31:20.515Z,4.10
2023-04-28T06:33:48.645Z,4.30
2023-04-28T06:36:18.142Z,4.20
2023-04-28T06:38:47.045Z,4.50
2023-04-28T06:41:15.430Z,4.10
2023-04-28T06:43:51.154Z,3.90
2023-04-28T06:46:24.883Z,4.50
2023-04-28T06:48:52.931Z,4.10
2023-04-28T06:51:20.909Z,3.90
2023-04-28T06:53:51.445Z,3.80
2023-04-28T06:56:20.123Z,4.00
2023-04-28T06:58:50.234Z,3.90
2023-04-28T07:01:18.364Z,4.30
2023-04-28T07:03:46.748Z,4.30
2023-04-28T07:06:15.182Z,3.70
2023-04-28T07:08:44.146Z,3.80
2023-04-28T07:11:12.430Z,3.50
2023-04-28T07:13:40.706Z,3.40
2023-04-28T07:16:10.457Z,3.80
2023-04-28T07:18:38.580Z,3.40
2023-04-28T07:21:06.875Z,3.10
2023-04-28T07:23:38.915Z,3.30
2023-04-28T07:26:07.516Z,3.30
2023-04-28T07:28:35.951Z,3.60
2023-04-28T07:31:04.313Z,3.30
2023-04-28T07:33:32.340Z,3.00
2023-04-28T07:36:00.426Z,2.60
2023-04-28T07:38:28.479Z,2.40
2023-04-28T07:40:56.549Z,2.10
2023-04-28T07:43:24.614Z,2.40
2023-04-28T07:45:53.221Z,2.10
2023-04-28T07:48:21.516Z,2.20
2023-04-28T07:50:49.555Z,2.00
2023-04-28T07:53:17.605Z,2.00
2023-04-28T07:55:46.399Z,2.00
2023-04-28T07:58:14.470Z,1.90
2023-04-28T08:00:42.507Z,1.90
2023-04-28T08:03:10.700Z,2.00
2023-04-28T08:05:39.765Z,2.00
2023-04-28T08:08:07.878Z,2.10
2023-04-28T08:10:35.988Z,2.00
2023-04-28T08:13:04.030Z,2.30
2023-04-28T08:15:32.122Z,2.30
2023-04-28T08:18:00.255Z,2.30
2023-04-28T08:20:29.630Z,2.40
2023-04-28T08:22:57.782Z,2.20
2023-04-28T08:25:26.446Z,2.00
2023-04-28T08:27:57.179Z,2.50
2023-04-28T08:30:25.438Z,2.40
2023-04-28T08:32:54.164Z,2.20
2023-04-28T08:35:22.291Z,2.30
2023-04-28T08:37:50.346Z,2.30
2023-04-28T08:40:18.623Z,2.10
2023-04-28T08:42:47.444Z,2.00
2023-04-28T08:45:16.582Z,2.00
2023-04-28T08:47:49.779Z,2.00
2023-04-28T08:50:22.426Z,1.60
2023-04-28T08:52:52.534Z,1.80
2023-04-28T08:55:21.093Z,1.70
2023-04-28T08:57:54.925Z,1.90
2023-04-28T09:00:23.571Z,1.70
2023-04-28T09:02:51.872Z,1.80
2023-04-28T09:05:20.520Z,2.10
2023-04-28T09:07:52.010Z,2.00
2023-04-28T09:10:21.539Z,2.70
2023-04-28T09:12:53.604Z,2.30
2023-04-28T09:15:34.969Z,2.40
2023-04-28T09:18:04.990Z,2.40
2023-04-28T09:20:34.556Z,3.20
2023-04-28T09:23:17.721Z,2.40
2023-04-28T09:26:01.997Z,2.20
2023-04-28T09:28:31.737Z,1.90
2023-04-28T09:31:00.332Z,2.30
2023-04-28T09:33:28.706Z,2.00
2023-04-28T09:35:57.104Z,2.40
2023-04-28T09:38:25.173Z,2.10
2023-04-28T09:41:01.759Z,2.10
2023-04-28T09:43:34.223Z,1.70
2023-04-28T09:46:04.585Z,1.70
2023-04-28T09:48:38.208Z,1.60
2023-04-28T09:51:08.167Z,1.80
2023-04-28T09:53:36.740Z,1.50
2023-04-28T09:56:08.215Z,1.80
2023-04-28T09:58:40.968Z,1.90
2023-04-28T10:01:11.829Z,2.70
2023-04-28T10:03:42.785Z,2.10
2023-04-28T10:06:10.987Z,2.00
2023-04-28T10:08:40.389Z,1.90
2023-04-28T10:11:10.070Z,1.50
2023-04-28T10:13:38.829Z,1.80
2023-04-28T10:16:08.270Z,2.00
2023-04-28T10:18:37.322Z,2.10
2023-04-28T10:21:07.567Z,1.90
2023-04-28T10:24:05.887Z,2.00
2023-04-28T10:27:03.293Z,1.70
2023-04-28T10:29:36.168Z,1.60
2023-04-28T10:32:20.488Z,1.80
2023-04-28T10:34:48.844Z,2.00
2023-04-28T10:37:19.088Z,2.10
2023-04-28T10:40:27.612Z,2.00
2023-04-28T10:42:56.728Z,2.20
2023-04-28T10:45:50.451Z,2.30
2023-04-28T10:48:22.651Z,2.30
2023-04-28T10:51:13.391Z,2.40
2023-04-28T10:53:44.777Z,2.40
2023-04-28T10:56:18.797Z,2.20
2023-04-28T10:58:49.152Z,2.20
2023-04-28T11:01:20.394Z,2.10
2023-04-28T11:03:52.421Z,1.90
2023-04-28T11:06:24.070Z,2.00
2023-04-28T11:08:53.205Z,2.00
2023-04-28T11:11:26.182Z,2.10
2023-04-28T11:14:14.188Z,1.80
2023-04-28T11:16:54.152Z,1.70
2023-04-28T11:19:43.200Z,1.80
2023-04-28T11:22:20.681Z,1.90
2023-04-28T11:25:02.933Z,1.80
2023-04-28T11:27:33.150Z,1.50
2023-04-28T11:30:02.135Z,1.90
2023-04-28T11:32:35.040Z,1.80
2023-04-28T11:35:04.982Z,1.70
2023-04-28T11:37:33.172Z,1.70
2023-04-28T11:40:11.145Z,1.90
2023-04-28T11:42:50.931Z,1.90
2023-04-28T11:45:19.208Z,1.90
2023-04-28T11:47:47.418Z,2.10
2023-04-28T11:50:16.369Z,2.10
2023-04-28T11:52:53.551Z,2.10
2023-04-28T11:55:22.027Z,1.90
2023-04-28T11:58:23.941Z,2.00
2023-04-28T12:01:27.499Z,1.80
2023-04-28T12:03:56.051Z,1.70
2023-04-28T12:06:24.517Z,2.00
2023-04-28T12:08:53.041Z,2.10
2023-04-28T12:11:22.598Z,2.10
2023-04-28T12:14:04.535Z,2.20
2023-04-28T12:16:44.471Z,2.00
2023-04-28T12:19:13.169Z,2.10
2023-04-28T12:21:41.928Z,2.20
2023-04-28T12:24:22.630Z,2.10
2023-04-28T12:26:50.751Z,2.30
2023-04-28T12:29:40.488Z,2.30
2023-04-28T12:32:10.372Z,2.40
2023-04-28T12:34:43.423Z,2.30
2023-04-28T12:37:12.485Z,2.00
2023-04-28T12:39:42.322Z,2.20
2023-04-28T12:42:10.567Z,2.40
2023-04-28T12:44:39.215Z,2.60
2023-04-28T12:47:11.314Z,2.60
2023-04-28T12:49:39.835Z,2.60
2023-04-28T12:52:08.200Z,2.40
2023-04-28T12:54:37.237Z,2.60
2023-04-28T12:57:05.711Z,2.60
2023-04-28T12:59:33.772Z,2.60
2023-04-28T13:02:01.813Z,2.70
2023-04-28T13:04:31.533Z,2.80
2023-04-28T13:07:00.048Z,2.70
2023-04-28T13:09:28.239Z,2.90
2023-04-28T13:11:56.214Z,2.70
2023-04-28T13:14:24.279Z,2.60
2023-04-28T13:16:53.055Z,2.70
2023-04-28T13:19:21.395Z,2.70
2023-04-28T13:21:49.973Z,2.90
2023-04-28T13:24:18.201Z,2.60
2023-04-28T13:26:46.434Z,2.70
2023-04-28T13:29:14.601Z,2.90
2023-04-28T13:31:42.719Z,2.70
2023-04-28T13:34:16.285Z,2.60
2023-04-28T13:36:45.247Z,3.00
2023-04-28T13:39:16.315Z,5.40
2023-04-28T13:41:44.237Z,2.70
2023-04-28T13:44:12.192Z,3.20
2023-04-28T13:46:40.195Z,2.90
2023-04-28T13:49:10.688Z,2.90
2023-04-28T13:51:39.168Z,2.90
2023-04-28T13:54:11.657Z,2.80
2023-04-28T13:56:39.832Z,2.80
2023-04-28T13:59:07.874Z,3.10
2023-04-28T14:01:35.883Z,2.70
2023-04-28T14:04:04.449Z,2.80
2023-04-28T14:06:34.763Z,2.90
2023-04-28T14:09:03.745Z,2.90
2023-04-28T14:11:31.925Z,2.90
2023-04-28T14:14:00.059Z,2.60
2023-04-28T14:16:28.620Z,2.70
2023-04-28T14:18:56.538Z,2.90
2023-04-28T14:21:24.530Z,2.70
2023-04-28T14:23:52.987Z,2.40
2023-04-28T14:26:21.260Z,2.50
2023-04-28T14:28:49.267Z,2.70
2023-04-28T14:31:18.347Z,2.70
2023-04-28T14:33:46.703Z,2.90
2023-04-28T14:36:14.681Z,2.60
2023-04-28T14:38:43.044Z,2.50
2023-04-28T14:41:11.619Z,2.60
2023-04-28T14:43:40.049Z,2.30
2023-04-28T14:46:08.208Z,2.50
2023-04-28T14:48:36.957Z,2.80
2023-04-28T14:51:05.033Z,3.10
2023-04-28T14:53:33.408Z,2.50
2023-04-28T14:56:17.328Z,3.00
2023-04-28T14:58:47.480Z,2.80
2023-04-28T15:01:15.737Z,2.70
2023-04-28T15:03:43.901Z,2.90
2023-04-28T15:06:12.243Z,2.90
2023-04-28T15:08:41.305Z,2.50
2023-04-28T15:11:09.581Z,3.10
2023-04-28T15:13:39.514Z,2.90
2023-04-28T15:16:08.499Z,3.00
2023-04-28T15:18:36.530Z,2.90
2023-04-28T15:21:04.814Z,3.00
2023-04-28T15:23:32.835Z,3.20
2023-04-28T15:26:01.543Z,3.60
2023-04-28T15:28:29.535Z,2.90
2023-04-28T15:30:57.613Z,3.00
2023-04-28T15:33:25.619Z,2.90
2023-04-28T15:35:53.541Z,2.90
2023-04-28T15:38:22.053Z,3.00
2023-04-28T15:40:50.093Z,2.80
2023-04-28T15:43:18.486Z,3.10
2023-04-28T15:45:47.753Z,2.70
2023-04-28T15:48:16.529Z,3.00
2023-04-28T15:50:44.911Z,3.20
2023-04-28T15:53:12.932Z,3.30
2023-04-28T15:55:40.973Z,2.90
2023-04-28T15:58:09.976Z,3.10
2023-04-28T16:00:38.141Z,3.10
2023-04-28T16:03:06.218Z,2.90
2023-04-28T16:05:34.393Z,3.30
2023-04-28T16:08:02.483Z,3.50
2023-04-28T16:10:30.550Z,2.90
2023-04-28T16:12:59.125Z,3.20
2023-04-28T16:15:27.392Z,3.50
2023-04-28T16:17:57.132Z,2.80
2023-04-28T16:20:25.270Z,2.70
2023-04-28T16:22:53.570Z,2.70
2023-04-28T16:25:22.256Z,3.20
2023-04-28T16:27:50.301Z,3.30
2023-04-28T16:30:18.845Z,3.10
2023-04-28T16:32:47.250Z,2.70
2023-04-28T16:35:16.042Z,2.50
2023-04-28T16:37:44.341Z,2.90
2023-04-28T16:40:13.019Z,2.80
2023-04-28T16:42:42.239Z,2.70
2023-04-28T16:45:11.217Z,2.80
2023-04-28T16:47:44.688Z,3.20
2023-04-28T16:50:16.295Z,3.90
2023-04-28T16:52:44.629Z,3.50
2023-04-28T16:55:12.802Z,2.80
2023-04-28T16:57:41.803Z,2.90
2023-04-28T17:00:11.152Z,2.80
2023-04-28T17:02:39.234Z,2.70
2023-04-28T17:05:08.473Z,2.80
2023-04-28T17:07:36.739Z,2.70
2023-04-28T17:10:05.565Z,3.60
2023-04-28T17:12:33.599Z,4.40
2023-04-28T17:15:01.976Z,4.30
2023-04-28T17:17:30.085Z,6.10
2023-04-28T17:20:00.085Z,4.60
2023-04-28T17:22:30.276Z,4.10
2023-04-28T17:24:58.247Z,4.50
2023-04-28T17:27:26.212Z,4.50
2023-04-28T17:29:54.286Z,4.20
2023-04-28T17:32:22.349Z,5.30
2023-04-28T17:34:50.327Z,5.30
2023-04-28T17:37:18.426Z,4.00
2023-04-28T17:39:49.610Z,3.90
2023-04-28T17:42:18.389Z,5.20
2023-04-28T17:44:46.392Z,5.60
2023-04-28T17:47:17.077Z,4.50
2023-04-28T17:49:46.081Z,4.30
2023-04-28T17:52:15.686Z,4.70
2023-04-28T17:54:43.804Z,4.70
2023-04-28T17:57:12.692Z,6.60
2023-04-28T17:59:40.855Z,6.80
2023-04-28T18:02:12.128Z,6.30
2023-04-28T18:04:40.434Z,5.90
2023-04-28T18:07:08.569Z,5.20
2023-04-28T18:09:36.561Z,5.70
2023-04-28T18:12:05.645Z,5.60
2023-04-28T18:14:33.937Z,4.70
2023-04-28T18:17:02.069Z,4.90
2023-04-28T18:19:30.550Z,5.20
2023-04-28T18:21:59.030Z,5.30
2023-04-28T18:24:26.991Z,5.50
2023-04-28T18:26:55.270Z,4.50
2023-04-28T18:29:23.255Z,4.80
2023-04-28T18:31:51.697Z,4.70
2023-04-28T18:34:20.096Z,5.30
2023-04-28T18:36:48.162Z,6.20
2023-04-28T18:39:17.285Z,8.30
2023-04-28T18:41:45.333Z,10.90
2023-04-28T18:44:14.218Z,11.70
2023-04-28T18:46:42.191Z,9.90
2023-04-28T18:49:10.502Z,8.50
2023-04-28T18:51:39.049Z,6.30
2023-04-28T18:54:07.424Z,5.20
2023-04-28T18:56:36.392Z,4.60
2023-04-28T18:59:04.894Z,4.30
2023-04-28T19:01:33.038Z,3.50
2023-04-28T19:04:01.165Z,4.30
2023-04-28T19:06:29.748Z,4.40
2023-04-28T19:08:57.730Z,4.50
2023-04-28T19:11:25.929Z,4.60
2023-04-28T19:13:55.060Z,3.90
2023-04-28T19:16:23.285Z,3.80
2023-04-28T19:18:51.306Z,3.40
2023-04-28T19:21:19.378Z,3.80
2023-04-28T19:23:48.802Z,4.10
2023-04-28T19:26:17.013Z,4.80
2023-04-28T19:28:45.019Z,4.60
2023-04-28T19:31:13.157Z,3.80
2023-04-28T19:33:41.465Z,4.10
2023-04-28T19:36:10.220Z,3.70
2023-04-28T19:38:40.339Z,3.70
2023-04-28T19:41:08.558Z,3.60
2023-04-28T19:43:36.922Z,3.40
2023-04-28T19:46:05.173Z,3.80
2023-04-28T19:48:33.475Z,3.80
2023-04-28T19:51:01.551Z,4.00
2023-04-28T19:53:29.721Z,3.80
2023-04-28T19:56:02.220Z,3.90
2023-04-28T19:58:30.420Z,4.70
2023-04-28T20:00:58.479Z,4.00
2023-04-28T20:03:26.681Z,3.60
2023-04-28T20:05:54.882Z,3.30
2023-04-28T20:08:25.719Z,3.80
2023-04-28T20:10:54.961Z,4.30
2023-04-28T20:13:23.096Z,4.10
2023-04-28T20:15:51.908Z,3.90
2023-04-28T20:18:20.157Z,4.30
2023-04-28T20:20:48.222Z,3.80
2023-04-28T20:23:16.503Z,3.70
2023-04-28T20:25:44.482Z,3.80
2023-04-28T20:28:12.621Z,4.40
2023-04-28T20:30:42.109Z,4.60
2023-04-28T20:33:10.585Z,3.80
2023-04-28T20:35:38.591Z,4.10
2023-04-28T20:38:06.658Z,3.80
2023-04-28T20:40:37.310Z,3.50
2023-04-28T20:43:05.670Z,4.70
2023-04-28T20:45:34.771Z,4.50
2023-04-28T20:48:04.079Z,4.30
2023-04-28T20:50:34.096Z,3.90
2023-04-28T20:53:02.051Z,4.10
2023-04-28T20:55:30.117Z,3.40
2023-04-28T20:57:58.193Z,3.70
2023-04-28T21:00:26.269Z,4.30
2023-04-28T21:02:54.633Z,3.90
2023-04-28T21:05:23.939Z,3.30
2023-04-28T21:07:52.117Z,3.40
2023-04-28T21:10:20.097Z,3.50
2023-04-28T21:12:48.218Z,3.90
2023-04-28T21:15:16.425Z,4.00
2023-04-28T21:17:44.516Z,3.90
2023-04-28T21:20:13.474Z,3.80
2023-04-28T21:22:41.563Z,3.50
2023-04-28T21:25:10.008Z,3.60
2023-04-28T21:27:38.013Z,3.80
2023-04-28T21:30:07.060Z,4.00
2023-04-28T21:32:35.030Z,4.00
2023-04-28T21:35:03.036Z,4.20
2023-04-28T21:37:31.734Z,4.30
2023-04-28T21:39:59.892Z,4.20
2023-04-28T21:42:31.855Z,4.00
2023-04-28T21:44:59.925Z,4.10
2023-04-28T21:47:28.833Z,4.20
2023-04-28T21:49:57.001Z,4.60
2023-04-28T21:52:25.166Z,4.00
2023-04-28T21:54:53.947Z,4.50
2023-04-28T21:57:22.331Z,4.50
2023-04-28T21:59:50.501Z,4.30
2023-04-28T22:02:18.754Z,4.50
2023-04-28T22:04:47.251Z,4.90
2023-04-28T22:07:15.225Z,4.30
2023-04-28T22:09:43.197Z,4.50
2023-04-28T22:12:11.174Z,4.90
2023-04-28T22:14:41.543Z,4.80
2023-04-28T22:17:09.973Z,5.50
2023-04-28T22:19:38.046Z,5.20
2023-04-28T22:22:07.738Z,4.40
2023-04-28T22:24:35.921Z,4.40
2023-04-28T22:27:03.946Z,5.40
2023-04-28T22:29:31.960Z,4.90
2023-04-28T22:31:59.930Z,4.50
2023-04-28T22:34:27.927Z,4.60
2023-04-28T22:36:56.083Z,4.90
2023-04-28T22:39:25.289Z,4.60
2023-04-28T22:41:53.439Z,5.10
2023-04-28T22:44:21.608Z,5.40
2023-04-28T22:46:49.750Z,4.80
2023-04-28T22:49:17.749Z,4.80
2023-04-28T22:51:45.821Z,4.60
2023-04-28T22:54:13.792Z,5.00
2023-04-28T22:56:41.959Z,5.20
2023-04-28T22:59:09.930Z,5.50
2023-04-28T23:01:38.044Z,5.00
2023-04-28T23:04:06.591Z,4.60
2023-04-28T23:06:35.116Z,4.40
2023-04-28T23:09:05.801Z,4.30
2023-04-28T23:11:33.871Z,4.20
2023-04-28T23:14:01.836Z,4.30
2023-04-28T23:16:29.875Z,4.60
2023-04-28T23:18:58.202Z,4.40
2023-04-28T23:21:26.429Z,3.90
2023-04-28T23:23:54.840Z,4.30
2023-04-28T23:26:24.950Z,4.00
2023-04-28T23:28:53.489Z,4.30
2023-04-28T23:31:21.851Z,4.40
2023-04-28T23:33:49.976Z,4.50
2023-04-28T23:36:17.958Z,4.40
2023-04-28T23:38:46.021Z,4.20
2023-04-28T23:41:14.087Z,4.40
2023-04-28T23:43:42.056Z,4.50
2023-04-28T23:46:10.107Z,4.60
2023-04-28T23:48:38.917Z,4.50
2023-04-28T23:51:07.086Z,4.50
2023-04-28T23:53:35.068Z,4.50
2023-04-28T23:56:03.229Z,4.90
2023-04-28T23:58:31.721Z,5.60
